Airfield :
LOGIN :

Register | Disclaimer

   EN    FR    IT 

 










Legend :    VFR   Marginal VFR   IFR   Intensive IFR   Very Intensive IFR
Visi :
Ceiling :
>= 8 km
>= 3000ft
5 to 8 km
1000 to 3000 ft
1500m to 5 km
500 to 1000 ft
800 to 1500m
200 to 500 ft
< 800m
< 200 ft
Symbols :   Thunderstorms  Fog  Heavy snow  Heavy precipitations  Wind > 20 kt
SIGMETs :     Misc.  Thunderstorms  Icing  Turbulence  Mountain Waves  Volcanic Ashes






- Airport Elevation : 17 ft
- IATA code : GRQ


EHGG - Groningen Eelde

CURRENT METAR :
  • 172155Z AUTO 31008KT 9000 FEW008 BKN009 OVC011 07/06 Q1036 NOSIG

EXPIRED METARs :
  • 172125Z AUTO 32007KT 290V350 9999 BKN012 BKN014 07/06 Q1036 NOSIG
  • 172055Z AUTO 32005KT 9999 FEW011 OVC013 07/06 Q1035 NOSIG
  • 172025Z AUTO 31005KT 280V350 9999 NCD 07/06 Q1035 TEMPO 7000 BKN014
  • 171955Z AUTO 32008KT 9999 FEW009 SCT010 BKN017 07/06 Q1035 TEMPO BKN012
  • 171925Z AUTO 31006KT 280V340 9999 FEW008 SCT010 BKN014 07/06 Q1035 TEMPO BKN009

TAF TAF EHGG
Valid from the 17 at 18:00 until the 19 at 00:00 UTC


171710Z 1718/1824 31008KT 9000 BKN013
PROB40
TEMPO 1718/1802 6000 BKN006
BECMG 1802/1805 BKN025
PROB40
TEMPO 1802/1808 2000 BCFG
BECMG 1805/1808 VRB03KT 0600 FG BKN000
BECMG 1810/1813 24007KT 4000 BR BKN004
PROB40 1812/1817 8000 NSW BKN025
PROB30 1817/1824 0800 FG BKN001



MET'MAP, your aeronautical weather chart ! - Copyright ORBIFLY December 2007 - Disclaimer

ORBIFLY MET'MAP TEAM :

Programming & Development : Alexandra Zaïnal
Concept & original design : Baudouin d'Aumeries
Assistance for programming : Marc-Olivier Méhu
Technical & hardware support : Manuel Goepfert

Contact : metmap@orbifly.com




SOURCES & CREDITS :

   NOAA